Hlavní strana
METAR-TAF:

METAR-TAF

Letiště :

Borlänge, Švédsko

zeměpisná šířka: 60-26N, zeměpisná délka: 015-31E, výška: 145 m

Aktuální stav počasí

Zpráva byla vytvořena před 29 minutami, v 02:50 UTC
Západní vítr 3 kt
Teplota -15°C
Vlhkost vzduchu 100%
Tlak 1014 hPa
Viditelnost 10 km a více

METAR: ESSD 210250Z AUTO 26003KT 9999 OVC040/// M15/M15 Q1014

Čas: 04:19 (03:19 UTC)


TAF: chybějící

Stav a předpovědi počasí z více než 4 000 letišť (zprávy METAR a TAF).

Červené a žluté tečky na mapě představují dostupné meteorologické stanice.

Když kurzor umístíte na tečku, zobrazí se název stanice.

Pak kliknutím zobrazíte stav a předpověď počasí.

Chcete-li změnit mapu, kliknutím na zelené tlačítko se znaménkem +mapu přiblížíte, kliknutím na zelené tlačítko se znaménkem – mapu oddálíte a kliknutím na zelené šipky přejdete na sousední mapy.


METAR-TAF: